createdAt,value
2023-03-20T00:04:27.309Z,16.52
2023-03-20T00:09:25.086Z,15.35
2023-03-20T00:14:24.199Z,14.25
2023-03-20T00:19:23.210Z,17.23
2023-03-20T00:24:23.849Z,16.70
2023-03-20T00:29:24.120Z,14.93
2023-03-20T00:34:28.411Z,14.45
2023-03-20T00:39:25.655Z,12.93
2023-03-20T00:44:25.730Z,12.48
2023-03-20T00:49:27.375Z,11.52
2023-03-20T00:54:25.622Z,13.15
2023-03-20T00:59:26.864Z,12.93
2023-03-20T01:04:24.225Z,13.65
2023-03-20T01:09:21.123Z,14.65
2023-03-20T01:14:18.103Z,16.45
2023-03-20T01:19:15.918Z,15.20
2023-03-20T01:24:12.890Z,17.33
2023-03-20T01:29:18.455Z,15.88
2023-03-20T01:39:13.344Z,17.20
2023-03-20T01:44:19.375Z,17.50
2023-03-20T01:49:54.306Z,19.80
2023-03-20T01:54:52.222Z,18.00
2023-03-20T01:59:53.631Z,18.17
2023-03-20T02:04:56.295Z,17.80
2023-03-20T02:09:54.147Z,17.70
2023-03-20T02:15:01.055Z,19.20
2023-03-20T02:20:31.321Z,18.90
2023-03-20T02:26:06.112Z,18.25
2023-03-20T02:31:53.750Z,18.20
2023-03-20T02:37:26.963Z,18.25
2023-03-20T02:42:33.783Z,18.85
2023-03-20T02:47:41.698Z,19.02
2023-03-20T02:52:57.256Z,18.77
2023-03-20T02:57:59.525Z,18.73
2023-03-20T03:03:02.553Z,17.60
2023-03-20T03:08:02.857Z,18.63
2023-03-20T03:13:07.237Z,17.27
2023-03-20T03:18:08.605Z,18.55
2023-03-20T03:23:07.933Z,16.52
2023-03-20T03:28:11.723Z,19.40
2023-03-20T03:33:16.591Z,18.30
2023-03-20T03:38:26.989Z,17.57
2023-03-20T03:43:31.284Z,18.65
2023-03-20T03:48:32.504Z,20.52
2023-03-20T03:53:33.712Z,17.35
2023-03-20T03:58:36.092Z,19.63
2023-03-20T04:03:37.952Z,18.85
2023-03-20T04:08:39.802Z,16.95
2023-03-20T04:13:36.758Z,17.73
2023-03-20T04:18:36.979Z,18.50
2023-03-20T04:23:34.161Z,22.25
2023-03-20T04:28:32.353Z,25.30
2023-03-20T04:33:49.784Z,22.27
2023-03-20T04:39:17.812Z,21.63
2023-03-20T04:44:16.002Z,19.75
2023-03-20T04:49:15.835Z,20.35
2023-03-20T04:54:12.926Z,21.15
2023-03-20T04:59:10.362Z,19.52
2023-03-20T05:04:08.307Z,20.95
2023-03-20T05:09:05.761Z,23.33
2023-03-20T05:14:07.339Z,20.70
2023-03-20T05:19:23.731Z,21.55
2023-03-20T05:24:42.377Z,19.45
2023-03-20T05:30:15.322Z,20.55
2023-03-20T05:40:41.199Z,19.33
2023-03-20T05:45:57.072Z,20.70
2023-03-20T05:51:15.103Z,20.08
2023-03-20T05:56:32.169Z,18.08
2023-03-20T06:01:49.412Z,24.10
2023-03-20T06:07:07.114Z,21.52
2023-03-20T06:12:05.427Z,22.75
2023-03-20T06:17:02.613Z,22.98
2023-03-20T06:22:00.615Z,23.38
2023-03-20T06:27:00.686Z,24.38
2023-03-20T06:31:58.538Z,25.70
2023-03-20T06:37:00.460Z,21.75
2023-03-20T06:41:59.545Z,21.23
2023-03-20T06:46:56.720Z,21.73
2023-03-20T06:51:53.762Z,20.00
2023-03-20T06:57:00.412Z,19.95
2023-03-20T07:02:03.443Z,21.52
2023-03-20T07:07:01.480Z,23.05
2023-03-20T07:11:59.522Z,18.48
2023-03-20T07:17:07.059Z,17.40
2023-03-20T07:22:07.706Z,14.55
2023-03-20T07:27:15.910Z,14.82
2023-03-20T07:32:14.034Z,12.43
2023-03-20T07:42:26.485Z,11.82
2023-03-20T07:47:38.141Z,12.80
2023-03-20T07:52:35.372Z,12.90
2023-03-20T07:57:32.986Z,13.85
2023-03-20T08:02:30.342Z,12.23
2023-03-20T08:07:29.161Z,12.55
2023-03-20T08:12:25.990Z,14.07
2023-03-20T08:17:23.161Z,12.60
2023-03-20T08:22:21.107Z,11.45
2023-03-20T08:27:19.168Z,11.88
2023-03-20T08:32:16.122Z,11.48
2023-03-20T08:37:15.387Z,11.05
2023-03-20T08:42:12.290Z,14.07
2023-03-20T08:47:11.454Z,12.55
2023-03-20T08:52:08.486Z,11.70
2023-03-20T08:57:05.501Z,10.38
2023-03-20T09:02:02.411Z,10.30
2023-03-20T09:07:03.169Z,10.25
2023-03-20T09:12:00.392Z,10.90
2023-03-20T09:16:57.397Z,12.00
2023-03-20T09:21:54.166Z,11.38
2023-03-20T09:26:55.080Z,12.85
2023-03-20T09:31:53.986Z,11.63
2023-03-20T09:36:51.060Z,11.85
2023-03-20T09:41:57.018Z,9.10
2023-03-20T09:47:19.336Z,10.98
2023-03-20T09:52:23.926Z,11.13
2023-03-20T09:57:25.628Z,10.07
2023-03-20T10:02:34.933Z,10.25
2023-03-20T10:07:32.073Z,12.05
2023-03-20T10:12:47.176Z,12.77
2023-03-20T10:17:54.495Z,10.18
2023-03-20T10:22:55.749Z,11.38
2023-03-20T10:28:00.706Z,11.05
2023-03-20T10:33:12.388Z,12.57
2023-03-20T10:38:24.417Z,10.57
2023-03-20T10:43:23.435Z,8.57
2023-03-20T10:48:26.436Z,9.32
2023-03-20T10:53:34.767Z,8.10
2023-03-20T10:58:37.798Z,9.07
2023-03-20T11:03:38.992Z,9.18
2023-03-20T11:08:38.799Z,11.10
2023-03-20T11:13:40.962Z,9.77
2023-03-20T11:18:41.772Z,9.25
2023-03-20T11:23:38.841Z,6.72
2023-03-20T11:28:40.010Z,6.82
2023-03-20T11:33:39.832Z,5.10
2023-03-20T11:38:44.487Z,5.57
2023-03-20T11:48:40.905Z,4.50
2023-03-20T11:53:43.382Z,5.38
2023-03-20T11:58:56.425Z,5.32
2023-03-20T12:04:02.818Z,6.97
2023-03-20T12:09:06.364Z,5.72
2023-03-20T12:14:08.185Z,7.32
2023-03-20T12:19:17.624Z,6.25
2023-03-20T12:24:24.382Z,5.68
2023-03-20T12:29:27.310Z,7.45
2023-03-20T12:34:29.265Z,6.70
2023-03-20T12:39:33.784Z,8.38
2023-03-20T12:44:41.564Z,6.90
2023-03-20T12:49:49.528Z,7.20
2023-03-20T12:55:08.625Z,6.03
2023-03-20T20:47:48.476Z,10.40
2023-03-20T20:52:45.521Z,11.18
2023-03-20T20:57:42.421Z,10.23
2023-03-20T21:02:39.966Z,10.43
2023-03-20T21:07:38.174Z,10.32
2023-03-20T21:12:48.527Z,10.52
2023-03-20T21:18:01.009Z,10.82
2023-03-20T21:23:02.321Z,11.32
2023-03-20T21:27:59.593Z,10.50
2023-03-20T21:32:56.713Z,12.32
2023-03-20T21:43:11.572Z,14.32
2023-03-20T21:54:26.025Z,13.55
2023-03-20T22:04:54.901Z,10.82
2023-03-20T22:25:53.136Z,11.18
2023-03-20T22:46:44.376Z,13.15
2023-03-20T22:51:43.932Z,13.27
2023-03-20T22:56:49.106Z,15.57
2023-03-20T23:01:46.717Z,17.23
2023-03-20T23:06:43.583Z,18.92
2023-03-20T23:11:42.189Z,18.25
2023-03-20T23:16:39.082Z,15.77
2023-03-20T23:21:37.261Z,17.25
2023-03-20T23:26:34.067Z,14.57
2023-03-20T23:31:30.997Z,10.55
2023-03-20T23:36:36.498Z,9.20
2023-03-20T23:46:52.496Z,10.00
2023-03-20T23:51:49.460Z,8.02
2023-03-20T23:56:47.534Z,9.63
